Time;durP1;ratioP1;P1;durP2;ratioP2;P2;SDS_P1;SDS_P2;PMS_P1;PMS_P2;Temp;Humidity;BMP_temperature;BMP_pressure;BME280_temperature;BME280_humidity;BME280_pressure;Samples;Min_cycle;Max_cycle;Signal;HPM_P1;HPM_P2
2023/06/26 00:01:39;;;;;;;4.32;3.92;;;23.30;63.30;;;;;;5003950;28;20038;-68
2023/06/26 00:04:05;;;;;;;4.28;3.85;;;23.30;63.40;;;;;;5005929;28;20120;-67
2023/06/26 00:06:30;;;;;;;4.75;4.35;;;23.30;63.30;;;;;;5002266;28;20037;-67
2023/06/26 00:08:56;;;;;;;4.70;4.28;;;23.40;63.40;;;;;;5001608;28;20064;-67
2023/06/26 00:11:22;;;;;;;4.32;3.88;;;23.30;63.20;;;;;;5004685;28;20038;-68
2023/06/26 00:13:48;;;;;;;4.88;4.38;;;23.40;63.40;;;;;;5005382;28;20038;-67
2023/06/26 00:16:13;;;;;;;4.88;3.72;;;23.30;63.20;;;;;;5003823;28;20041;-68
2023/06/26 00:18:39;;;;;;;4.22;3.83;;;23.40;63.20;;;;;;5005728;28;20083;-67
2023/06/26 00:21:04;;;;;;;5.35;4.00;;;23.40;63.20;;;;;;5003167;28;20080;-68
2023/06/26 00:23:36;;;;;;;4.35;3.95;;;23.40;63.30;;;;;;5004626;28;20038;-67
2023/06/26 00:26:02;;;;;;;4.82;4.30;;;23.30;63.20;;;;;;5004184;28;20452;-67
2023/06/26 00:28:28;;;;;;;4.55;3.92;;;23.40;63.40;;;;;;5004230;28;20034;-67
2023/06/26 00:30:53;;;;;;;4.68;4.28;;;23.30;63.40;;;;;;5000408;28;20037;-68
2023/06/26 00:33:19;;;;;;;4.07;3.67;;;23.30;63.40;;;;;;5001306;28;20042;-67
2023/06/26 00:35:44;;;;;;;4.70;4.30;;;23.30;63.40;;;;;;5004429;28;20571;-67
2023/06/26 00:38:10;;;;;;;4.38;3.97;;;23.30;63.30;;;;;;5004204;28;20073;-67
2023/06/26 00:40:35;;;;;;;4.50;4.05;;;23.30;63.30;;;;;;4998994;28;20504;-67
2023/06/26 00:43:01;;;;;;;4.20;3.80;;;23.30;63.10;;;;;;5005163;28;20033;-67
2023/06/26 00:45:28;;;;;;;4.68;4.28;;;23.30;63.20;;;;;;5003205;28;20038;-67
2023/06/26 00:47:54;;;;;;;4.88;4.15;;;23.30;63.30;;;;;;5002221;28;20038;-67
2023/06/26 00:50:20;;;;;;;5.28;4.10;;;23.30;63.20;;;;;;5006152;28;20109;-67
2023/06/26 00:52:46;;;;;;;3.97;3.60;;;23.30;63.20;;;;;;5003478;28;20033;-67
2023/06/26 00:55:12;;;;;;;4.70;4.30;;;23.30;63.80;;;;;;5003081;28;20038;-67
2023/06/26 00:57:38;;;;;;;5.03;3.95;;;23.30;63.40;;;;;;4997854;28;20513;-67
2023/06/26 01:00:04;;;;;;;4.45;4.05;;;23.40;63.30;;;;;;5003700;28;20060;-67
2023/06/26 01:02:33;;;;;;;4.75;4.18;;;23.30;63.20;;;;;;5001504;28;20046;-66
2023/06/26 01:05:06;;;;;;;5.55;4.05;;;23.30;63.10;;;;;;5004651;28;20026;-67
2023/06/26 01:07:36;;;;;;;5.03;4.47;;;23.30;63.20;;;;;;5003356;28;20030;-67
2023/06/26 01:10:03;;;;;;;6.32;4.35;;;23.30;63.20;;;;;;5004149;28;20080;-67
2023/06/26 01:12:30;;;;;;;4.93;4.43;;;23.30;63.20;;;;;;5003637;28;20038;-66
2023/06/26 01:14:55;;;;;;;5.13;4.40;;;23.30;63.10;;;;;;5003848;28;20489;-66
2023/06/26 01:17:23;;;;;;;5.00;4.50;;;23.30;63.20;;;;;;4999804;28;20034;-66
2023/06/26 01:19:49;;;;;;;4.65;3.63;;;23.30;63.20;;;;;;5001595;28;20037;-67
2023/06/26 01:22:27;;;;;;;4.65;4.25;;;23.30;63.10;;;;;;5004099;28;20041;-67
2023/06/26 01:25:26;;;;;;;4.57;4.18;;;23.30;63.20;;;;;;4997793;28;20404;-66
2023/06/26 01:27:54;;;;;;;6.57;3.95;;;23.30;63.10;;;;;;4995195;28;20033;-67
2023/06/26 01:30:21;;;;;;;6.28;4.32;;;23.30;63.20;;;;;;5017096;28;20041;-67
2023/06/26 01:32:47;;;;;;;4.82;4.32;;;23.30;63.20;;;;;;5001165;28;20026;-67
2023/06/26 01:35:14;;;;;;;5.45;4.03;;;23.30;63.20;;;;;;5003718;28;20050;-67
2023/06/26 01:37:39;;;;;;;4.50;4.07;;;23.30;63.20;;;;;;5003077;28;20030;-67
2023/06/26 01:40:05;;;;;;;5.35;4.10;;;23.30;63.30;;;;;;5002886;28;20022;-67
2023/06/26 01:42:32;;;;;;;5.45;3.78;;;23.30;63.30;;;;;;5004070;28;20068;-66
2023/06/26 01:45:05;;;;;;;5.28;4.78;;;23.30;63.30;;;;;;5003638;28;21433;-67
2023/06/26 01:47:34;;;;;;;4.93;4.43;;;23.30;63.40;;;;;;5001250;28;20038;-67
2023/06/26 01:50:06;;;;;;;4.60;4.15;;;23.30;63.30;;;;;;5003421;28;20045;-67
2023/06/26 01:52:41;;;;;;;5.00;4.45;;;23.30;63.30;;;;;;5000670;28;20081;-67
2023/06/26 01:55:19;;;;;;;5.75;4.65;;;23.30;63.40;;;;;;4998191;28;20392;-67
2023/06/26 01:57:47;;;;;;;5.32;4.47;;;23.30;63.40;;;;;;4992953;28;20033;-67
2023/06/26 02:00:17;;;;;;;4.93;4.20;;;23.30;63.40;;;;;;5000125;28;20037;-66
2023/06/26 02:02:43;;;;;;;4.40;4.00;;;23.30;64.00;;;;;;5002024;28;20034;-66
2023/06/26 02:05:09;;;;;;;4.15;3.83;;;23.30;63.40;;;;;;5002921;28;20079;-67
2023/06/26 02:07:34;;;;;;;4.72;4.32;;;23.30;63.40;;;;;;5025340;28;20490;-66
2023/06/26 02:10:00;;;;;;;5.15;3.97;;;23.20;63.40;;;;;;5001889;28;20038;-67
2023/06/26 02:12:25;;;;;;;4.43;4.03;;;23.30;63.40;;;;;;5021867;28;20037;-67
2023/06/26 02:14:51;;;;;;;7.00;4.35;;;23.30;63.40;;;;;;5000006;28;20042;-67
2023/06/26 02:17:17;;;;;;;5.13;4.03;;;23.30;63.50;;;;;;5024507;28;20037;-67
2023/06/26 02:19:47;;;;;;;4.55;4.13;;;23.30;63.50;;;;;;4999694;28;20108;-67
2023/06/26 02:22:16;;;;;;;5.78;4.03;;;23.30;63.40;;;;;;5023318;28;20479;-66
2023/06/26 02:24:43;;;;;;;4.10;3.72;;;23.20;63.40;;;;;;5003023;28;20109;-67
2023/06/26 02:27:09;;;;;;;5.18;4.25;;;23.20;63.40;;;;;;5002080;28;20086;-67
2023/06/26 02:29:34;;;;;;;4.28;3.83;;;23.30;63.60;;;;;;5003290;28;20686;-67
2023/06/26 02:32:00;;;;;;;4.95;4.40;;;23.20;63.40;;;;;;4998770;28;24818;-67
2023/06/26 02:34:25;;;;;;;4.68;4.25;;;23.20;63.40;;;;;;5002914;28;20030;-66
2023/06/26 02:36:54;;;;;;;4.68;4.28;;;23.20;63.40;;;;;;5019120;28;20427;-67
2023/06/26 02:39:20;;;;;;;4.95;4.03;;;23.20;63.40;;;;;;5005922;28;20113;-67
2023/06/26 02:41:45;;;;;;;4.47;3.92;;;23.20;63.30;;;;;;4999176;28;20113;-67
2023/06/26 02:44:12;;;;;;;4.45;4.05;;;23.20;63.50;;;;;;5001628;28;20673;-65
2023/06/26 02:46:38;;;;;;;5.88;4.20;;;23.20;63.40;;;;;;5002477;28;20041;-67
2023/06/26 02:49:03;;;;;;;4.68;4.28;;;23.20;63.40;;;;;;5003052;28;20042;-67
2023/06/26 02:51:29;;;;;;;5.20;4.70;;;23.20;63.50;;;;;;5000921;28;20416;-67
2023/06/26 02:53:54;;;;;;;5.45;4.85;;;23.20;63.50;;;;;;5000440;28;20038;-67
2023/06/26 02:56:20;;;;;;;4.43;3.80;;;23.20;63.40;;;;;;5000657;28;20037;-67
2023/06/26 02:58:45;;;;;;;4.90;4.50;;;23.20;63.60;;;;;;5002648;28;20037;-67
2023/06/26 03:01:10;;;;;;;4.75;4.35;;;23.20;63.60;;;;;;5003314;28;20113;-67
2023/06/26 03:03:40;;;;;;;4.80;4.40;;;23.20;63.40;;;;;;5003313;28;20477;-67
2023/06/26 03:06:09;;;;;;;5.63;4.00;;;23.20;63.40;;;;;;5003371;28;20100;-67
2023/06/26 03:08:38;;;;;;;4.90;3.97;;;23.20;63.50;;;;;;4998951;28;20088;-66
2023/06/26 03:11:03;;;;;;;4.82;4.43;;;23.20;63.50;;;;;;5001481;28;20034;-66
2023/06/26 03:13:29;;;;;;;4.88;4.47;;;23.20;63.50;;;;;;5001864;28;20029;-66
2023/06/26 03:15:54;;;;;;;4.75;4.28;;;23.20;63.50;;;;;;4998509;28;20021;-67
2023/06/26 03:18:20;;;;;;;4.40;4.00;;;23.20;63.40;;;;;;5004020;28;20700;-67
2023/06/26 03:20:46;;;;;;;4.97;4.03;;;23.20;63.40;;;;;;4999423;28;20030;-67
2023/06/26 03:23:11;;;;;;;4.07;3.78;;;23.20;63.50;;;;;;5002073;28;20250;-67
2023/06/26 03:25:36;;;;;;;4.72;4.22;;;23.20;63.40;;;;;;5005020;28;20057;-67
2023/06/26 03:28:02;;;;;;;4.88;4.47;;;23.20;63.40;;;;;;5006748;28;20033;-67
2023/06/26 03:30:27;;;;;;;5.53;4.57;;;23.20;63.40;;;;;;5005267;28;20034;-66
2023/06/26 03:32:53;;;;;;;4.55;4.05;;;23.20;63.40;;;;;;5004536;28;20038;-65
2023/06/26 03:35:19;;;;;;;4.30;3.90;;;23.20;63.30;;;;;;5005368;28;20034;-67
2023/06/26 03:37:44;;;;;;;4.93;4.43;;;23.20;63.30;;;;;;5000885;28;20084;-64
2023/06/26 03:40:10;;;;;;;4.43;4.03;;;23.20;63.20;;;;;;5005077;28;20086;-62
2023/06/26 03:42:35;;;;;;;4.18;3.78;;;23.20;63.20;;;;;;5005430;28;20036;-66
2023/06/26 03:45:01;;;;;;;4.13;3.72;;;23.30;63.20;;;;;;5005850;28;20044;-66
2023/06/26 03:47:26;;;;;;;4.90;4.40;;;23.20;63.20;;;;;;5003628;28;20029;-66
2023/06/26 03:49:51;;;;;;;4.65;4.25;;;23.20;63.20;;;;;;5001951;28;20577;-65
2023/06/26 03:52:17;;;;;;;4.43;4.00;;;23.20;63.90;;;;;;5003977;28;20045;-66
2023/06/26 03:54:43;;;;;;;7.68;4.50;;;23.20;63.50;;;;;;5005847;28;20026;-66
2023/06/26 03:57:09;;;;;;;4.38;3.97;;;23.20;63.70;;;;;;5005546;28;20030;-66
2023/06/26 03:59:36;;;;;;;4.88;4.40;;;23.10;63.70;;;;;;5005632;28;20030;-67
2023/06/26 04:02:01;;;;;;;5.03;4.53;;;23.10;63.80;;;;;;5001559;28;20443;-63
2023/06/26 04:04:27;;;;;;;4.75;4.22;;;23.10;63.80;;;;;;5004668;28;20038;-67
2023/06/26 04:06:52;;;;;;;6.28;4.68;;;23.10;63.80;;;;;;5004924;28;20476;-66
2023/06/26 04:09:19;;;;;;;5.85;4.60;;;23.10;63.80;;;;;;5004044;28;20133;-63
2023/06/26 04:11:44;;;;;;;6.07;4.68;;;23.10;63.80;;;;;;5005513;28;20030;-65
2023/06/26 04:14:10;;;;;;;4.65;4.18;;;23.10;63.70;;;;;;5006425;28;20108;-66
2023/06/26 04:16:36;;;;;;;7.38;5.05;;;23.10;63.70;;;;;;5001777;28;20037;-67
2023/06/26 04:19:02;;;;;;;5.15;4.65;;;23.00;63.60;;;;;;5004210;28;20037;-67
2023/06/26 04:21:27;;;;;;;5.38;4.88;;;23.10;63.80;;;;;;5003867;28;20579;-65
2023/06/26 04:23:53;;;;;;;5.43;4.78;;;23.10;63.80;;;;;;5004358;28;20029;-65
2023/06/26 04:26:18;;;;;;;6.43;4.85;;;23.10;63.70;;;;;;5005843;28;20037;-66
2023/06/26 04:28:44;;;;;;;6.00;4.80;;;23.00;63.60;;;;;;5006680;28;20030;-65
2023/06/26 04:31:09;;;;;;;5.22;4.47;;;23.10;63.60;;;;;;5004530;28;20029;-66
2023/06/26 04:33:36;;;;;;;5.47;4.90;;;23.10;63.60;;;;;;5000793;28;20036;-66
2023/06/26 04:36:03;;;;;;;5.35;4.63;;;23.10;63.50;;;;;;5000705;28;20049;-67
2023/06/26 04:38:29;;;;;;;5.30;4.80;;;23.10;63.60;;;;;;5001873;28;20030;-66
2023/06/26 04:40:54;;;;;;;5.72;4.57;;;23.10;63.50;;;;;;5004273;28;20111;-67
2023/06/26 04:43:20;;;;;;;5.70;4.97;;;23.10;63.40;;;;;;5005081;28;20034;-67
2023/06/26 04:45:45;;;;;;;4.95;4.50;;;23.10;63.30;;;;;;5005142;28;20053;-67
2023/06/26 04:48:11;;;;;;;5.45;4.57;;;23.10;63.30;;;;;;5002719;28;20088;-66
2023/06/26 04:50:36;;;;;;;5.50;4.75;;;23.10;63.20;;;;;;5004408;28;20035;-65
2023/06/26 04:53:02;;;;;;;4.90;4.50;;;23.20;63.20;;;;;;5005184;28;20061;-67
2023/06/26 04:55:28;;;;;;;5.10;4.60;;;23.20;63.20;;;;;;5003356;28;20034;-64
2023/06/26 04:57:53;;;;;;;5.78;5.18;;;23.20;63.20;;;;;;5002158;28;20022;-67
2023/06/26 05:00:19;;;;;;;4.95;4.45;;;23.20;63.10;;;;;;5004232;28;20037;-67
2023/06/26 05:02:45;;;;;;;4.97;4.43;;;23.20;63.00;;;;;;5002688;28;20030;-68
2023/06/26 05:05:11;;;;;;;5.13;4.65;;;23.20;63.00;;;;;;5000262;28;20036;-69
2023/06/26 05:07:37;;;;;;;7.40;4.80;;;23.30;63.10;;;;;;5001712;28;20031;-67
2023/06/26 05:10:03;;;;;;;4.70;4.20;;;23.30;63.30;;;;;;5004838;28;20030;-67
2023/06/26 05:12:29;;;;;;;5.93;4.57;;;23.20;63.10;;;;;;5001288;28;20041;-67
2023/06/26 05:14:54;;;;;;;6.85;5.20;;;23.30;63.20;;;;;;5002923;28;20038;-67
2023/06/26 05:17:20;;;;;;;8.43;4.55;;;23.30;63.30;;;;;;5004576;28;20124;-67
2023/06/26 05:19:46;;;;;;;9.27;5.70;;;23.30;63.40;;;;;;5003241;28;20025;-68
2023/06/26 05:22:12;;;;;;;11.77;5.10;;;23.30;63.80;;;;;;5003782;28;20641;-67
2023/06/26 05:24:39;;;;;;;7.30;4.95;;;23.20;63.60;;;;;;5002001;28;20242;-68
2023/06/26 05:27:05;;;;;;;6.10;4.72;;;23.30;63.90;;;;;;5005103;28;20539;-65
2023/06/26 05:29:31;;;;;;;8.20;4.68;;;23.30;63.80;;;;;;5003575;28;20042;-68
2023/06/26 05:31:57;;;;;;;7.55;4.63;;;23.30;63.70;;;;;;5001841;28;20076;-68
2023/06/26 05:34:24;;;;;;;8.73;4.90;;;23.30;63.60;;;;;;5001524;28;20038;-67
2023/06/26 05:36:51;;;;;;;5.93;4.72;;;23.30;63.50;;;;;;5001660;28;20030;-67
2023/06/26 05:39:17;;;;;;;5.97;4.90;;;23.30;63.50;;;;;;5006305;28;20088;-68
2023/06/26 05:41:46;;;;;;;6.85;5.05;;;23.30;63.40;;;;;;5003920;28;20126;-67
2023/06/26 05:44:12;;;;;;;5.45;4.82;;;23.30;63.30;;;;;;5006217;28;20041;-66
2023/06/26 05:46:38;;;;;;;10.65;5.28;;;23.30;63.00;;;;;;4998133;28;20030;-67
2023/06/26 05:49:03;;;;;;;6.15;5.47;;;23.30;62.80;;;;;;5004793;28;20117;-67
2023/06/26 05:51:29;;;;;;;7.10;5.60;;;23.30;62.80;;;;;;5003244;28;20137;-68
2023/06/26 05:53:55;;;;;;;6.07;5.18;;;23.30;62.70;;;;;;5003773;28;20448;-67
2023/06/26 05:56:21;;;;;;;6.20;5.50;;;23.30;62.60;;;;;;5001573;28;20503;-68
2023/06/26 05:58:47;;;;;;;6.40;5.22;;;23.30;62.40;;;;;;5002904;28;20066;-66
2023/06/26 06:01:12;;;;;;;6.35;5.70;;;23.30;62.40;;;;;;5003474;28;20025;-67
2023/06/26 06:03:39;;;;;;;6.18;5.57;;;23.30;62.40;;;;;;4998842;28;20499;-67
2023/06/26 06:06:05;;;;;;;6.32;5.72;;;23.30;62.20;;;;;;5003038;28;20124;-66
2023/06/26 06:08:31;;;;;;;6.05;5.43;;;23.30;62.30;;;;;;5002098;28;20046;-67
2023/06/26 06:10:56;;;;;;;6.78;5.68;;;23.30;62.30;;;;;;5002844;28;20064;-68
2023/06/26 06:13:22;;;;;;;6.47;5.45;;;23.30;62.10;;;;;;5003614;28;20049;-65
2023/06/26 06:15:47;;;;;;;6.68;5.75;;;23.30;62.00;;;;;;5002719;28;20756;-67
2023/06/26 06:18:13;;;;;;;6.72;6.05;;;23.30;61.90;;;;;;5004261;28;20087;-66
2023/06/26 06:20:38;;;;;;;8.32;5.75;;;23.30;61.90;;;;;;5002461;28;20041;-67
2023/06/26 06:23:04;;;;;;;7.25;6.00;;;23.30;61.60;;;;;;5002961;28;20049;-69
2023/06/26 06:25:29;;;;;;;6.13;5.55;;;23.30;61.70;;;;;;5002256;28;20022;-65
2023/06/26 06:27:55;;;;;;;5.93;5.32;;;23.30;61.60;;;;;;5003550;28;20401;-68
2023/06/26 06:30:20;;;;;;;6.68;6.00;;;23.30;61.60;;;;;;5003507;28;20038;-66
2023/06/26 06:32:50;;;;;;;5.75;5.18;;;23.30;61.30;;;;;;4999617;28;20038;-66
2023/06/26 06:35:16;;;;;;;7.38;5.45;;;23.30;61.20;;;;;;5000755;28;20042;-66
2023/06/26 06:37:42;;;;;;;6.53;5.63;;;23.30;61.50;;;;;;5001775;28;20038;-67
2023/06/26 06:40:09;;;;;;;7.38;5.90;;;23.30;61.20;;;;;;5002928;28;20030;-66
2023/06/26 06:42:35;;;;;;;6.15;5.55;;;23.30;61.20;;;;;;4999905;28;20080;-65
2023/06/26 06:45:03;;;;;;;6.82;5.93;;;23.30;61.20;;;;;;5003496;28;20033;-66
2023/06/26 06:47:28;;;;;;;5.93;5.32;;;23.30;61.20;;;;;;5002349;28;20038;-67
2023/06/26 06:49:54;;;;;;;6.90;5.90;;;23.40;61.40;;;;;;5002903;28;20025;-67
2023/06/26 06:52:19;;;;;;;7.00;6.30;;;23.30;61.50;;;;;;5003060;28;20045;-67
2023/06/26 06:54:52;;;;;;;5.97;5.32;;;23.40;61.40;;;;;;5000679;28;20526;-67
2023/06/26 06:57:18;;;;;;;7.25;6.05;;;23.40;61.30;;;;;;5002208;28;20145;-66
2023/06/26 06:59:43;;;;;;;7.32;6.05;;;23.30;61.30;;;;;;5005894;28;20099;-67
2023/06/26 07:02:09;;;;;;;6.82;6.13;;;23.30;61.40;;;;;;5004247;28;20093;-66
2023/06/26 07:04:34;;;;;;;8.60;5.63;;;23.30;61.30;;;;;;5006594;28;20057;-67
2023/06/26 07:07:00;;;;;;;6.30;5.70;;;23.30;61.40;;;;;;5004443;28;20037;-68
2023/06/26 07:09:25;;;;;;;7.82;5.80;;;23.30;61.20;;;;;;5003517;28;20030;-67
2023/06/26 07:11:50;;;;;;;6.82;6.13;;;23.30;61.40;;;;;;5004536;28;20038;-67
2023/06/26 07:14:16;;;;;;;7.22;6.25;;;23.30;61.40;;;;;;5006865;28;20041;-66
2023/06/26 07:16:41;;;;;;;6.50;5.90;;;23.30;61.10;;;;;;5006646;28;20594;-68
2023/06/26 07:19:07;;;;;;;7.68;5.78;;;23.30;61.20;;;;;;5005574;28;20030;-68
2023/06/26 07:21:32;;;;;;;8.75;6.75;;;23.30;61.40;;;;;;5005249;28;20088;-67
2023/06/26 07:23:58;;;;;;;7.57;5.95;;;23.30;61.30;;;;;;5005398;28;20030;-67
2023/06/26 07:26:23;;;;;;;7.03;5.93;;;23.30;61.30;;;;;;5006090;28;20096;-68
2023/06/26 07:28:49;;;;;;;6.95;5.75;;;23.30;61.30;;;;;;5006080;28;20061;-68
2023/06/26 07:31:16;;;;;;;6.95;6.25;;;23.30;61.10;;;;;;5004543;28;20030;-68
2023/06/26 07:33:42;;;;;;;9.77;6.28;;;23.40;61.30;;;;;;5002053;28;20570;-67
2023/06/26 07:36:07;;;;;;;7.63;6.85;;;23.30;61.20;;;;;;5003951;28;20117;-68
2023/06/26 07:38:33;;;;;;;6.30;5.50;;;23.30;61.30;;;;;;5005520;28;20118;-69
2023/06/26 07:40:58;;;;;;;6.18;5.57;;;23.30;61.40;;;;;;5010122;28;20052;-68
2023/06/26 07:43:24;;;;;;;7.20;6.07;;;23.40;61.60;;;;;;5010877;28;20492;-68
2023/06/26 07:45:51;;;;;;;9.10;6.28;;;23.30;61.50;;;;;;5009438;28;20701;-68
2023/06/26 07:48:16;;;;;;;6.75;6.05;;;23.40;61.60;;;;;;5009791;28;20548;-68
2023/06/26 07:50:42;;;;;;;7.00;6.20;;;23.30;61.80;;;;;;5008232;28;20122;-67
2023/06/26 07:53:08;;;;;;;7.18;6.47;;;23.40;62.00;;;;;;5009916;28;20022;-68
2023/06/26 07:55:33;;;;;;;7.55;6.05;;;23.40;61.90;;;;;;5009000;28;20030;-68
2023/06/26 07:57:59;;;;;;;7.07;6.38;;;23.40;61.90;;;;;;5003380;28;20113;-68
2023/06/26 08:00:24;;;;;;;6.97;6.03;;;23.40;61.80;;;;;;5006066;28;20038;-69
2023/06/26 08:02:50;;;;;;;6.53;5.80;;;23.40;61.80;;;;;;5005615;28;20030;-68
2023/06/26 08:05:15;;;;;;;5.93;5.32;;;23.40;61.60;;;;;;5005229;28;20029;-69
2023/06/26 08:07:41;;;;;;;6.93;6.20;;;23.40;61.20;;;;;;5003673;28;20022;-67
2023/06/26 08:10:06;;;;;;;12.98;6.55;;;23.40;61.30;;;;;;5005328;28;20046;-68
2023/06/26 08:12:32;;;;;;;6.95;5.93;;;23.40;61.40;;;;;;5005108;28;20532;-69
2023/06/26 08:14:57;;;;;;;8.18;6.35;;;23.40;61.40;;;;;;5005019;28;20026;-66
2023/06/26 08:17:23;;;;;;;8.85;6.32;;;23.50;61.60;;;;;;5006077;28;20050;-68
2023/06/26 08:19:48;;;;;;;6.72;5.82;;;23.40;61.50;;;;;;5006081;28;21378;-68
2023/06/26 08:22:14;;;;;;;9.73;6.55;;;23.40;61.40;;;;;;5005517;28;20022;-70
2023/06/26 08:24:39;;;;;;;7.57;6.05;;;23.50;61.30;;;;;;5004447;28;20041;-69
2023/06/26 08:27:07;;;;;;;7.10;6.05;;;23.50;61.10;;;;;;5004920;28;20173;-68
2023/06/26 08:29:32;;;;;;;6.80;6.07;;;23.50;60.90;;;;;;5002976;28;20053;-67
2023/06/26 08:31:58;;;;;;;7.55;6.10;;;23.50;60.80;;;;;;5004842;28;20076;-69
2023/06/26 08:34:24;;;;;;;7.07;6.38;;;23.50;60.60;;;;;;5004915;28;20038;-68
2023/06/26 08:36:49;;;;;;;7.25;6.07;;;23.50;60.70;;;;;;5004218;28;20035;-68
2023/06/26 08:39:15;;;;;;;7.95;6.18;;;23.50;60.60;;;;;;5009746;28;20034;-69
2023/06/26 08:41:42;;;;;;;6.63;5.95;;;23.50;60.20;;;;;;5006214;28;20026;-68
2023/06/26 08:44:07;;;;;;;7.57;6.85;;;23.50;60.30;;;;;;5008792;28;20033;-69
2023/06/26 08:46:33;;;;;;;6.55;5.95;;;23.50;60.50;;;;;;5008773;28;20030;-68
2023/06/26 08:49:08;;;;;;;8.05;7.25;;;23.50;60.10;;;;;;5001921;28;20092;-68
2023/06/26 08:51:37;;;;;;;7.47;6.75;;;23.60;60.00;;;;;;5004464;28;20041;-68
2023/06/26 08:54:07;;;;;;;7.80;6.10;;;23.50;59.50;;;;;;5000677;28;20069;-68
2023/06/26 08:56:37;;;;;;;8.57;5.72;;;23.60;59.30;;;;;;5000434;28;20042;-67
2023/06/26 08:59:04;;;;;;;10.57;6.60;;;23.50;59.00;;;;;;5002378;28;20034;-68
2023/06/26 09:01:31;;;;;;;6.78;6.07;;;23.60;59.30;;;;;;5002009;28;20668;-67
2023/06/26 09:03:56;;;;;;;8.57;6.70;;;23.50;59.20;;;;;;5002781;28;20088;-68
2023/06/26 09:06:22;;;;;;;7.30;6.03;;;23.60;59.50;;;;;;5003600;28;20030;-68
2023/06/26 09:08:48;;;;;;;6.35;5.75;;;23.60;59.50;;;;;;5003513;28;20045;-68
2023/06/26 09:11:13;;;;;;;7.45;6.05;;;23.60;59.50;;;;;;5002949;28;20026;-68
2023/06/26 09:13:40;;;;;;;6.60;5.70;;;23.60;59.30;;;;;;5002405;28;20045;-69
2023/06/26 09:16:08;;;;;;;6.03;5.43;;;23.60;59.40;;;;;;5001842;28;20038;-68
2023/06/26 09:18:34;;;;;;;8.50;6.10;;;23.60;59.40;;;;;;5002505;28;20042;-66
2023/06/26 09:21:00;;;;;;;7.60;6.30;;;23.60;59.40;;;;;;5001720;28;20104;-68
2023/06/26 09:23:26;;;;;;;8.27;6.55;;;23.60;59.50;;;;;;5001116;28;20520;-66
2023/06/26 09:25:52;;;;;;;6.90;5.90;;;23.60;59.70;;;;;;4998879;28;20036;-69
2023/06/26 09:28:18;;;;;;;8.48;7.60;;;23.60;59.60;;;;;;5000350;28;20044;-69
2023/06/26 09:30:46;;;;;;;6.72;6.13;;;23.70;59.60;;;;;;5000366;28;20025;-69
2023/06/26 09:33:15;;;;;;;6.97;6.28;;;23.70;59.60;;;;;;5001529;28;20068;-69
2023/06/26 09:35:42;;;;;;;7.90;5.95;;;23.70;59.50;;;;;;4999007;28;20107;-68
2023/06/26 09:38:07;;;;;;;6.68;5.97;;;23.70;59.10;;;;;;5003136;28;20548;-69
2023/06/26 09:40:35;;;;;;;9.18;6.03;;;23.70;58.50;;;;;;5002518;28;20034;-68
2023/06/26 09:43:05;;;;;;;7.00;6.25;;;23.70;59.50;;;;;;4999402;28;20026;-68
2023/06/26 09:45:32;;;;;;;6.63;6.03;;;23.70;58.70;;;;;;5003665;28;20062;-67
2023/06/26 09:48:04;;;;;;;7.00;5.60;;;23.70;58.80;;;;;;5000838;28;20033;-68
2023/06/26 09:50:33;;;;;;;6.78;5.93;;;23.70;58.90;;;;;;4999878;28;20057;-67
2023/06/26 09:53:06;;;;;;;6.97;6.13;;;23.70;58.20;;;;;;4994829;28;20121;-67
2023/06/26 09:55:35;;;;;;;6.82;5.57;;;23.70;58.40;;;;;;5000403;28;20034;-67
2023/06/26 09:58:02;;;;;;;6.55;5.82;;;23.70;58.20;;;;;;4999763;28;20030;-69
2023/06/26 10:00:28;;;;;;;8.13;6.15;;;23.70;58.20;;;;;;5001194;28;20030;-67
2023/06/26 10:02:53;;;;;;;7.63;6.45;;;23.70;58.10;;;;;;5002609;28;20022;-67
2023/06/26 10:05:19;;;;;;;5.93;5.32;;;23.80;57.90;;;;;;5004494;28;20034;-68
2023/06/26 10:07:46;;;;;;;7.70;6.22;;;23.80;57.30;;;;;;5001724;28;20321;-68
2023/06/26 10:10:12;;;;;;;6.30;5.70;;;23.80;57.40;;;;;;5005055;28;20074;-68
2023/06/26 10:12:37;;;;;;;8.93;6.00;;;23.80;57.30;;;;;;5001799;28;20029;-68
2023/06/26 10:15:04;;;;;;;6.45;5.80;;;23.90;57.60;;;;;;5003265;28;20108;-68
2023/06/26 10:17:36;;;;;;;6.43;5.72;;;23.80;57.30;;;;;;5010078;28;20034;-67
2023/06/26 10:20:03;;;;;;;7.57;6.53;;;23.90;57.20;;;;;;4999536;28;20500;-69
2023/06/26 10:22:33;;;;;;;6.45;5.82;;;23.90;56.50;;;;;;5002189;28;20022;-67
2023/06/26 10:25:00;;;;;;;8.32;6.28;;;23.90;56.60;;;;;;5001767;28;20073;-66
2023/06/26 10:27:31;;;;;;;7.47;6.05;;;23.90;56.80;;;;;;5004579;28;20087;-68
2023/06/26 10:30:00;;;;;;;7.53;6.20;;;23.90;57.30;;;;;;5002023;28;20369;-68
2023/06/26 10:32:27;;;;;;;7.07;6.38;;;23.90;57.50;;;;;;5002725;28;20045;-68
2023/06/26 10:34:55;;;;;;;7.18;6.47;;;23.90;57.10;;;;;;4994102;28;20045;-68
2023/06/26 10:37:20;;;;;;;8.13;7.28;;;23.90;57.00;;;;;;5005613;28;20104;-67
2023/06/26 10:39:49;;;;;;;7.88;7.07;;;23.90;56.40;;;;;;5003099;28;20518;-68
2023/06/26 10:42:18;;;;;;;8.98;6.13;;;23.90;56.30;;;;;;5005058;28;20034;-68
2023/06/26 10:44:45;;;;;;;7.18;6.47;;;24.00;56.60;;;;;;5004491;28;20109;-65
2023/06/26 10:47:12;;;;;;;7.70;6.38;;;24.00;56.40;;;;;;5003877;28;20129;-67
2023/06/26 10:49:42;;;;;;;10.20;7.07;;;23.90;56.20;;;;;;5007127;28;20481;-68
2023/06/26 10:52:08;;;;;;;6.88;5.93;;;23.90;56.50;;;;;;5003694;28;20109;-68
2023/06/26 10:54:33;;;;;;;8.18;7.15;;;23.90;56.50;;;;;;5006301;28;20037;-68
2023/06/26 10:56:59;;;;;;;7.80;6.43;;;24.00;56.20;;;;;;5005364;28;20030;-68
2023/06/26 10:59:29;;;;;;;7.97;6.13;;;24.00;56.00;;;;;;5006556;28;20037;-68
2023/06/26 11:02:05;;;;;;;7.43;6.72;;;24.00;56.20;;;;;;5005193;28;20556;-68
2023/06/26 11:04:52;;;;;;;8.45;6.95;;;23.90;55.50;;;;;;5004192;28;20040;-68
2023/06/26 11:07:24;;;;;;;8.40;7.10;;;24.00;55.60;;;;;;5002237;28;20571;-68
2023/06/26 11:09:55;;;;;;;8.00;7.20;;;24.00;55.40;;;;;;4999786;28;20104;-67
2023/06/26 11:12:42;;;;;;;8.20;6.90;;;24.00;55.60;;;;;;5006266;28;20034;-69
2023/06/26 11:15:16;;;;;;;7.63;6.75;;;24.00;55.60;;;;;;5001354;28;20038;-66
2023/06/26 11:17:42;;;;;;;10.05;7.75;;;24.10;55.80;;;;;;5001881;28;20038;-68
2023/06/26 11:20:10;;;;;;;7.50;6.70;;;24.10;55.50;;;;;;5003320;28;20174;-69
2023/06/26 11:22:38;;;;;;;9.48;7.35;;;24.00;55.70;;;;;;5001885;28;20056;-68
2023/06/26 11:25:05;;;;;;;7.88;7.18;;;24.10;55.80;;;;;;5002566;28;20030;-68
2023/06/26 11:27:53;;;;;;;8.32;7.43;;;24.20;55.80;;;;;;5005350;28;20034;-68
2023/06/26 11:30:25;;;;;;;12.57;7.97;;;24.20;55.30;;;;;;5006812;28;20500;-68
2023/06/26 11:32:51;;;;;;;8.90;7.90;;;24.20;55.50;;;;;;5005974;28;20408;-68
2023/06/26 11:35:30;;;;;;;8.05;7.25;;;24.20;55.90;;;;;;5005327;28;20051;-68
2023/06/26 11:37:56;;;;;;;8.25;7.00;;;24.20;56.70;;;;;;5004038;28;20022;-69
2023/06/26 11:40:26;;;;;;;9.63;8.02;;;24.20;56.70;;;;;;5007550;28;20050;-69
2023/06/26 11:42:53;;;;;;;8.32;7.40;;;24.20;55.90;;;;;;5008265;28;20049;-69
2023/06/26 11:45:19;;;;;;;9.38;7.40;;;24.20;55.70;;;;;;5006305;28;20444;-69
2023/06/26 11:47:45;;;;;;;9.57;7.00;;;24.20;55.50;;;;;;5004069;28;20037;-69
2023/06/26 11:50:17;;;;;;;7.90;7.05;;;24.20;55.70;;;;;;5003213;28;20319;-69
2023/06/26 11:52:44;;;;;;;10.40;8.25;;;24.20;55.30;;;;;;5005061;28;20037;-68
2023/06/26 11:55:12;;;;;;;8.45;7.65;;;24.20;55.10;;;;;;5005265;28;20686;-68
2023/06/26 11:57:38;;;;;;;8.43;7.53;;;24.20;55.60;;;;;;5006861;28;20064;-68
2023/06/26 12:00:14;;;;;;;8.18;7.10;;;24.10;55.20;;;;;;5004831;28;20029;-68
2023/06/26 12:02:39;;;;;;;8.45;7.55;;;24.10;55.20;;;;;;5002842;28;20038;-68
2023/06/26 12:05:07;;;;;;;7.25;6.55;;;24.20;55.20;;;;;;5001683;28;20083;-69
2023/06/26 12:07:33;;;;;;;8.00;7.20;;;24.20;55.20;;;;;;5002302;28;20034;-68
2023/06/26 12:09:59;;;;;;;7.40;6.70;;;24.20;55.00;;;;;;5005524;28;20087;-69
2023/06/26 12:12:25;;;;;;;8.02;7.15;;;24.20;54.70;;;;;;5001795;28;20050;-67
2023/06/26 12:14:52;;;;;;;7.82;7.00;;;24.20;55.00;;;;;;5002762;28;20030;-69
2023/06/26 12:17:21;;;;;;;7.78;6.90;;;24.20;55.00;;;;;;5001228;28;20046;-69
2023/06/26 12:19:50;;;;;;;7.35;6.55;;;24.20;55.70;;;;;;5004380;28;20049;-68
2023/06/26 12:22:16;;;;;;;7.18;6.47;;;24.20;55.60;;;;;;5003479;28;20701;-68
2023/06/26 12:24:43;;;;;;;8.07;7.03;;;24.20;55.10;;;;;;5004631;28;20045;-68
2023/06/26 12:27:11;;;;;;;8.65;6.85;;;24.30;54.70;;;;;;5018937;28;20036;-68
2023/06/26 12:29:38;;;;;;;8.00;7.20;;;24.30;55.30;;;;;;5007737;28;20030;-69
2023/06/26 12:32:07;;;;;;;8.13;7.32;;;24.30;54.50;;;;;;5001814;28;20173;-68
2023/06/26 12:34:34;;;;;;;7.97;7.10;;;24.30;54.70;;;;;;5004647;28;20042;-68
2023/06/26 12:37:03;;;;;;;8.73;6.95;;;24.30;54.30;;;;;;5003776;28;20026;-68
2023/06/26 12:39:29;;;;;;;8.27;7.40;;;24.30;54.30;;;;;;5001552;28;20193;-68
2023/06/26 12:41:57;;;;;;;9.50;8.00;;;24.40;54.40;;;;;;5001481;28;20030;-67
2023/06/26 12:44:28;;;;;;;8.40;6.90;;;24.40;54.60;;;;;;5003315;28;20042;-69